Time;durP1;ratioP1;P1;durP2;ratioP2;P2;SDS_P1;SDS_P2;PMS_P1;PMS_P2;Temp;Humidity;BMP_temperature;BMP_pressure;BME280_temperature;BME280_humidity;BME280_pressure;Samples;Min_cycle;Max_cycle;Signal;HPM_P1;HPM_P2
2023/04/15 00:01:57;;;;;;;16.35;10.95;;;6.10;99.90;;;;;;4767054;30;20055;-69
2023/04/15 00:04:24;;;;;;;16.88;10.85;;;6.10;99.90;;;;;;4768099;30;20043;-69
2023/04/15 00:06:53;;;;;;;13.52;9.77;;;6.20;99.90;;;;;;4767672;30;20040;-69
2023/04/15 00:09:20;;;;;;;17.90;10.60;;;6.20;99.90;;;;;;4766884;30;20086;-68
2023/04/15 00:11:50;;;;;;;13.90;10.27;;;6.20;99.90;;;;;;4768643;30;20051;-70
2023/04/15 00:14:17;;;;;;;15.40;9.75;;;6.20;99.90;;;;;;4765289;30;20079;-69
2023/04/15 00:16:44;;;;;;;15.88;10.90;;;6.20;99.90;;;;;;4764530;30;20057;-69
2023/04/15 00:19:12;;;;;;;13.55;10.43;;;6.20;99.90;;;;;;4766542;30;20534;-68
2023/04/15 00:21:39;;;;;;;14.35;11.07;;;6.20;99.90;;;;;;4762445;30;20393;-69
2023/04/15 00:24:06;;;;;;;16.33;11.15;;;6.30;99.90;;;;;;4774327;30;20048;-69
2023/04/15 00:26:34;;;;;;;14.25;10.10;;;6.30;99.90;;;;;;4776533;30;20055;-69
2023/04/15 00:29:01;;;;;;;13.77;10.68;;;6.30;99.90;;;;;;4767342;30;20095;-68
2023/04/15 00:31:30;;;;;;;15.68;10.82;;;6.30;99.90;;;;;;4767413;30;20467;-68
2023/04/15 00:33:58;;;;;;;13.60;9.88;;;6.30;99.90;;;;;;4765567;30;20464;-69
2023/04/15 00:36:25;;;;;;;15.18;9.75;;;6.30;99.90;;;;;;4751940;30;20048;-69
2023/04/15 00:38:53;;;;;;;11.60;8.70;;;6.30;99.90;;;;;;4752610;30;20056;-69
2023/04/15 00:41:21;;;;;;;10.80;7.97;;;6.30;99.90;;;;;;4776961;30;20353;-69
2023/04/15 00:43:49;;;;;;;12.20;8.88;;;6.30;99.90;;;;;;4780290;30;20047;-69
2023/04/15 00:46:19;;;;;;;13.25;9.20;;;6.30;99.90;;;;;;4766095;30;20067;-68
2023/04/15 00:48:46;;;;;;;11.27;8.93;;;6.30;99.90;;;;;;4759357;30;20410;-68
2023/04/15 00:51:14;;;;;;;12.52;8.95;;;6.30;99.90;;;;;;4765887;30;20054;-69
2023/04/15 00:53:42;;;;;;;13.75;8.93;;;6.30;99.90;;;;;;4765985;30;20056;-69
2023/04/15 00:56:09;;;;;;;12.43;8.57;;;6.30;99.90;;;;;;4765262;30;20105;-70
2023/04/15 00:58:37;;;;;;;12.57;9.02;;;6.30;99.90;;;;;;4780174;29;20046;-68
2023/04/15 01:01:05;;;;;;;11.93;8.93;;;6.30;99.90;;;;;;4760902;30;20121;-70
2023/04/15 01:03:33;;;;;;;12.60;8.57;;;6.30;99.90;;;;;;4760063;30;20072;-69
2023/04/15 01:06:01;;;;;;;12.82;9.43;;;6.30;99.90;;;;;;4758708;30;20046;-69
2023/04/15 01:08:30;;;;;;;11.77;8.77;;;6.30;99.90;;;;;;4758603;30;20051;-68
2023/04/15 01:11:01;;;;;;;12.13;9.10;;;6.30;99.90;;;;;;4774796;30;20143;-68
2023/04/15 01:13:29;;;;;;;12.63;8.40;;;6.30;99.90;;;;;;4762823;30;20545;-68
2023/04/15 01:15:56;;;;;;;11.30;8.27;;;6.30;99.90;;;;;;4749168;30;20048;-68
2023/04/15 01:18:24;;;;;;;13.23;7.90;;;6.30;99.90;;;;;;4748572;30;20044;-69
2023/04/15 01:20:52;;;;;;;10.77;7.93;;;6.30;99.90;;;;;;4762315;30;20051;-68
2023/04/15 01:23:23;;;;;;;10.65;8.05;;;6.30;99.90;;;;;;4760141;30;20089;-68
2023/04/15 01:25:52;;;;;;;10.32;7.82;;;6.30;99.90;;;;;;4756948;30;20067;-69
2023/04/15 01:28:20;;;;;;;11.30;8.43;;;6.20;99.90;;;;;;4762546;30;20044;-69
2023/04/15 01:30:48;;;;;;;12.40;7.95;;;6.20;99.90;;;;;;4762229;30;20134;-68
2023/04/15 01:33:15;;;;;;;10.95;8.27;;;6.20;99.90;;;;;;4762058;30;20247;-68
2023/04/15 01:36:01;;;;;;;12.15;8.50;;;6.20;99.90;;;;;;4773953;30;20651;-68
2023/04/15 01:38:29;;;;;;;10.02;8.02;;;6.20;99.90;;;;;;4763342;30;20415;-68
2023/04/15 01:40:58;;;;;;;11.70;7.90;;;6.20;99.90;;;;;;4761320;30;20044;-68
2023/04/15 01:43:27;;;;;;;15.77;10.45;;;6.10;99.90;;;;;;4755849;30;20036;-69
2023/04/15 01:45:55;;;;;;;13.52;8.70;;;6.10;99.90;;;;;;4749384;30;20067;-68
2023/04/15 01:48:26;;;;;;;10.93;8.43;;;6.10;99.90;;;;;;4767322;30;20512;-68
2023/04/15 01:50:58;;;;;;;11.35;9.07;;;6.10;99.90;;;;;;4763702;30;20055;-68
2023/04/15 01:53:26;;;;;;;14.07;7.97;;;6.20;99.90;;;;;;4758825;30;20047;-68
2023/04/15 01:55:55;;;;;;;11.85;8.27;;;6.20;99.90;;;;;;4765163;30;20062;-69
2023/04/15 01:58:24;;;;;;;12.68;8.23;;;6.20;99.90;;;;;;4773709;30;20071;-70
2023/04/15 02:00:52;;;;;;;11.90;8.18;;;6.20;99.90;;;;;;4764814;30;20062;-68
2023/04/15 02:03:21;;;;;;;11.73;7.32;;;6.20;99.90;;;;;;4773831;30;20507;-67
2023/04/15 02:05:50;;;;;;;10.65;8.20;;;6.20;99.90;;;;;;4760952;30;20539;-68
2023/04/15 02:08:18;;;;;;;11.38;8.07;;;6.20;99.90;;;;;;4755622;30;20044;-68
2023/04/15 02:10:47;;;;;;;9.63;7.40;;;6.20;99.90;;;;;;4762868;30;20040;-68
2023/04/15 02:13:15;;;;;;;13.98;7.97;;;6.20;99.90;;;;;;4756937;30;20051;-67
2023/04/15 02:15:48;;;;;;;11.93;7.68;;;6.20;99.90;;;;;;4765609;30;20040;-70
2023/04/15 02:18:20;;;;;;;10.48;7.20;;;6.20;99.90;;;;;;4772812;30;20048;-70
2023/04/15 02:20:51;;;;;;;10.90;7.93;;;6.20;99.90;;;;;;4764739;30;20043;-69
2023/04/15 02:23:20;;;;;;;11.00;7.50;;;6.20;99.90;;;;;;4762361;30;20050;-68
2023/04/15 02:25:48;;;;;;;10.45;8.18;;;6.10;99.90;;;;;;4754617;30;20058;-69
2023/04/15 02:28:21;;;;;;;11.85;7.55;;;6.10;99.90;;;;;;4758860;30;20056;-68
2023/04/15 02:30:51;;;;;;;9.95;7.55;;;6.10;99.90;;;;;;4767227;30;20376;-68
2023/04/15 02:33:20;;;;;;;11.20;7.18;;;6.20;99.90;;;;;;4758297;30;20058;-68
2023/04/15 02:35:49;;;;;;;9.77;7.30;;;6.20;99.90;;;;;;4759525;30;20062;-68
2023/04/15 02:38:18;;;;;;;10.32;7.40;;;6.10;99.90;;;;;;4767887;30;20052;-69
2023/04/15 02:40:49;;;;;;;10.32;7.18;;;6.20;99.90;;;;;;4759287;30;20041;-68
2023/04/15 02:43:17;;;;;;;10.90;7.43;;;6.20;99.90;;;;;;4761109;30;20060;-68
2023/04/15 02:45:46;;;;;;;9.40;6.80;;;6.20;99.90;;;;;;4767613;30;20052;-68
2023/04/15 02:48:17;;;;;;;9.55;7.05;;;6.20;99.90;;;;;;4757621;30;20055;-68
2023/04/15 02:50:46;;;;;;;11.57;7.57;;;6.20;99.90;;;;;;4760819;30;20060;-67
2023/04/15 02:53:16;;;;;;;10.35;6.97;;;6.20;99.90;;;;;;4771007;30;20052;-69
2023/04/15 02:55:45;;;;;;;12.05;7.65;;;6.20;99.90;;;;;;4773300;30;20058;-68
2023/04/15 02:58:13;;;;;;;11.27;7.50;;;6.30;99.90;;;;;;4749432;30;20052;-69
2023/04/15 03:00:42;;;;;;;11.93;7.45;;;6.20;99.90;;;;;;4757337;30;20356;-68
2023/04/15 03:03:11;;;;;;;12.15;7.47;;;6.30;99.90;;;;;;4766653;30;20499;-69
2023/04/15 03:05:40;;;;;;;11.27;7.03;;;6.30;99.90;;;;;;4766980;30;20048;-68
2023/04/15 03:08:08;;;;;;;9.77;7.32;;;6.30;99.90;;;;;;4758161;30;20354;-68
2023/04/15 03:10:37;;;;;;;13.10;7.53;;;6.30;99.90;;;;;;4781521;30;20056;-68
2023/04/15 03:13:05;;;;;;;11.25;7.00;;;6.30;99.90;;;;;;4767338;30;20069;-68
2023/04/15 03:15:35;;;;;;;9.23;7.00;;;6.40;99.90;;;;;;4760684;30;20419;-69
2023/04/15 03:18:03;;;;;;;10.85;7.82;;;6.40;99.90;;;;;;4764994;30;20393;-68
2023/04/15 03:20:35;;;;;;;9.70;6.90;;;6.40;99.90;;;;;;4781052;30;20066;-68
2023/04/15 03:23:04;;;;;;;9.73;7.25;;;6.40;99.90;;;;;;4757150;30;20055;-68
2023/04/15 03:25:32;;;;;;;11.02;6.68;;;6.40;99.90;;;;;;4782552;30;20052;-68
2023/04/15 03:28:02;;;;;;;11.85;7.32;;;6.40;99.90;;;;;;4766966;30;20059;-67
2023/04/15 03:30:30;;;;;;;11.43;6.65;;;6.40;99.90;;;;;;4760217;30;20055;-67
2023/04/15 03:32:59;;;;;;;9.98;7.53;;;6.40;99.90;;;;;;4765958;30;20078;-68
2023/04/15 03:35:28;;;;;;;9.93;6.28;;;6.40;99.90;;;;;;4749897;30;20040;-67
2023/04/15 03:37:57;;;;;;;10.05;6.85;;;6.40;99.90;;;;;;4764205;30;20415;-69
2023/04/15 03:40:25;;;;;;;9.73;6.10;;;6.30;99.90;;;;;;4761791;30;20356;-68
2023/04/15 03:42:54;;;;;;;10.10;6.88;;;6.30;99.90;;;;;;4756772;30;20063;-69
2023/04/15 03:45:23;;;;;;;9.90;7.40;;;6.30;99.90;;;;;;4762389;30;20040;-69
2023/04/15 03:47:51;;;;;;;11.52;6.80;;;6.30;99.90;;;;;;4750052;30;20056;-68
2023/04/15 03:50:20;;;;;;;9.75;7.55;;;6.30;99.90;;;;;;4759976;30;20435;-68
2023/04/15 03:52:49;;;;;;;9.57;7.30;;;6.20;99.90;;;;;;4757293;30;20051;-68
2023/04/15 03:55:19;;;;;;;10.73;7.93;;;6.20;99.90;;;;;;4766422;30;20070;-69
2023/04/15 03:57:48;;;;;;;12.30;7.93;;;6.20;99.90;;;;;;4765729;30;20050;-69
2023/04/15 04:00:16;;;;;;;11.63;7.47;;;6.30;99.90;;;;;;4757167;30;20047;-70
2023/04/15 04:02:44;;;;;;;12.98;8.75;;;6.30;99.90;;;;;;4760186;30;20070;-68
2023/04/15 04:05:13;;;;;;;13.32;8.45;;;6.30;99.90;;;;;;4766411;30;20040;-68
2023/04/15 04:07:42;;;;;;;11.90;9.13;;;6.30;99.90;;;;;;4759569;30;20055;-68
2023/04/15 04:10:10;;;;;;;11.48;8.23;;;6.30;99.90;;;;;;4762844;30;20064;-69
2023/04/15 04:12:39;;;;;;;13.07;8.10;;;6.20;99.90;;;;;;4762361;30;20047;-69
2023/04/15 04:15:08;;;;;;;12.02;8.90;;;6.20;99.90;;;;;;4756388;30;20062;-68
2023/04/15 04:17:36;;;;;;;12.95;8.75;;;6.30;99.90;;;;;;4760835;30;20056;-68
2023/04/15 04:20:05;;;;;;;11.55;8.18;;;6.30;99.90;;;;;;4764692;30;20510;-69
2023/04/15 04:22:40;;;;;;;11.52;8.10;;;6.30;99.90;;;;;;4764100;30;20043;-69
2023/04/15 04:25:10;;;;;;;11.38;8.20;;;6.30;99.90;;;;;;4755892;30;20054;-70
2023/04/15 04:27:38;;;;;;;13.00;8.80;;;6.30;99.90;;;;;;4758905;30;20040;-69
2023/04/15 04:30:07;;;;;;;11.00;8.13;;;6.30;99.90;;;;;;4758958;30;20048;-69
2023/04/15 04:32:36;;;;;;;14.43;9.30;;;6.30;99.90;;;;;;4765611;30;20047;-68
2023/04/15 04:35:06;;;;;;;12.63;8.68;;;6.30;99.90;;;;;;4763030;30;20061;-69
2023/04/15 04:37:34;;;;;;;12.38;8.32;;;6.30;99.90;;;;;;4758191;30;20052;-69
2023/04/15 04:40:03;;;;;;;12.13;8.50;;;6.30;99.90;;;;;;4753087;30;20050;-69
2023/04/15 04:42:32;;;;;;;14.65;8.80;;;6.30;99.90;;;;;;4754076;30;20044;-70
2023/04/15 04:45:00;;;;;;;12.73;8.85;;;6.30;99.90;;;;;;4757239;30;20048;-69
2023/04/15 04:47:30;;;;;;;13.18;9.05;;;6.30;99.90;;;;;;4758026;30;20054;-69
2023/04/15 04:49:59;;;;;;;12.65;9.15;;;6.40;99.90;;;;;;4763209;30;20364;-69
2023/04/15 04:52:27;;;;;;;10.93;8.23;;;6.40;99.90;;;;;;4759054;30;20058;-68
2023/04/15 04:54:56;;;;;;;12.88;9.35;;;6.40;99.90;;;;;;4757521;30;20427;-68
2023/04/15 04:57:24;;;;;;;12.82;8.80;;;6.40;99.90;;;;;;4749311;30;20074;-68
2023/04/15 04:59:52;;;;;;;12.50;8.98;;;6.40;99.90;;;;;;4763187;30;20040;-69
2023/04/15 05:02:21;;;;;;;12.02;8.80;;;6.40;99.90;;;;;;4760766;30;20074;-68
2023/04/15 05:04:53;;;;;;;12.48;9.10;;;6.40;99.90;;;;;;4762444;30;20043;-68
2023/04/15 05:07:21;;;;;;;13.30;9.43;;;6.40;99.90;;;;;;4762251;30;20503;-67
2023/04/15 05:09:50;;;;;;;13.30;9.02;;;6.50;99.90;;;;;;4762438;30;20371;-68
2023/04/15 05:12:18;;;;;;;12.68;8.93;;;6.50;99.90;;;;;;4755747;30;20052;-68
2023/04/15 05:14:47;;;;;;;13.77;9.73;;;6.50;99.90;;;;;;4762614;30;20054;-68
2023/04/15 05:17:15;;;;;;;14.73;10.02;;;6.60;99.90;;;;;;4766293;30;20423;-68
2023/04/15 05:19:44;;;;;;;14.05;8.98;;;6.60;99.90;;;;;;4766406;30;20047;-68
2023/04/15 05:22:12;;;;;;;12.35;8.25;;;6.70;99.90;;;;;;4764002;30;20052;-69
2023/04/15 05:24:41;;;;;;;13.25;9.10;;;6.70;99.90;;;;;;4766159;30;20051;-68
2023/04/15 05:27:10;;;;;;;13.23;9.00;;;6.80;99.90;;;;;;4762625;30;20512;-68
2023/04/15 05:29:39;;;;;;;12.98;9.75;;;6.80;99.90;;;;;;4753785;30;20135;-68
2023/04/15 05:32:07;;;;;;;13.30;8.80;;;6.90;99.90;;;;;;4765346;30;20083;-68
2023/04/15 05:34:36;;;;;;;13.55;8.63;;;7.00;99.90;;;;;;4752139;30;20060;-69
2023/04/15 05:37:04;;;;;;;11.98;8.63;;;7.00;99.90;;;;;;4777272;30;20090;-68
2023/04/15 05:39:33;;;;;;;11.45;8.02;;;7.10;99.90;;;;;;4763984;30;20052;-68
2023/04/15 05:42:02;;;;;;;11.20;8.05;;;7.20;99.90;;;;;;4756224;30;20054;-68
2023/04/15 05:44:31;;;;;;;12.18;8.55;;;7.20;99.90;;;;;;4759001;30;20054;-68
2023/04/15 05:46:59;;;;;;;12.60;8.55;;;7.20;99.90;;;;;;4759907;30;20052;-67
2023/04/15 05:49:28;;;;;;;13.57;8.77;;;7.20;99.90;;;;;;4764225;30;20054;-68
2023/04/15 05:51:56;;;;;;;12.75;9.10;;;7.20;99.90;;;;;;4767562;30;20060;-68
2023/04/15 05:54:26;;;;;;;12.88;9.07;;;7.20;99.90;;;;;;4769875;30;20063;-67
2023/04/15 05:56:56;;;;;;;12.15;9.10;;;7.20;99.90;;;;;;4768987;30;20060;-67
2023/04/15 05:59:24;;;;;;;13.27;9.30;;;7.30;99.90;;;;;;4761497;30;20048;-68
2023/04/15 06:01:53;;;;;;;12.45;9.02;;;7.30;99.90;;;;;;4765396;30;20046;-69
2023/04/15 06:04:22;;;;;;;12.90;9.30;;;7.30;99.90;;;;;;4768636;30;20054;-68
2023/04/15 06:06:51;;;;;;;18.00;11.85;;;7.40;99.90;;;;;;4768368;30;20048;-67
2023/04/15 06:09:19;;;;;;;12.60;9.13;;;7.50;99.90;;;;;;4775117;30;20048;-69
2023/04/15 06:11:48;;;;;;;13.70;9.20;;;7.60;99.90;;;;;;4761417;30;20052;-69
2023/04/15 06:14:16;;;;;;;14.77;9.68;;;7.60;99.90;;;;;;4766439;30;20066;-68
2023/04/15 06:16:45;;;;;;;13.27;9.55;;;7.60;99.90;;;;;;4760769;30;20217;-69
2023/04/15 06:19:14;;;;;;;16.73;10.07;;;7.60;99.90;;;;;;4767783;30;20044;-67
2023/04/15 06:21:43;;;;;;;14.27;10.02;;;7.60;99.90;;;;;;4767884;30;20082;-68
2023/04/15 06:24:12;;;;;;;12.60;10.13;;;7.60;99.90;;;;;;4762335;30;20058;-70
2023/04/15 06:26:40;;;;;;;13.15;9.63;;;7.60;99.90;;;;;;4766746;30;20044;-69
2023/04/15 06:29:09;;;;;;;12.15;9.38;;;7.60;99.90;;;;;;4761369;30;20052;-69
2023/04/15 06:31:37;;;;;;;11.93;8.73;;;7.70;99.90;;;;;;4762430;30;20048;-69
2023/04/15 06:34:06;;;;;;;14.98;9.90;;;7.70;99.90;;;;;;4759526;30;20052;-68
2023/04/15 06:36:35;;;;;;;14.27;9.38;;;7.80;99.90;;;;;;4755822;30;20051;-68
2023/04/15 06:39:03;;;;;;;15.93;9.48;;;7.80;99.90;;;;;;4765725;30;20458;-68
2023/04/15 06:41:32;;;;;;;13.30;9.30;;;7.80;99.90;;;;;;4773939;30;20062;-68
2023/04/15 06:44:01;;;;;;;12.18;9.48;;;7.80;99.90;;;;;;4768101;30;20066;-68
2023/04/15 06:46:30;;;;;;;15.75;9.98;;;7.80;99.90;;;;;;4766821;30;20044;-68
2023/04/15 06:48:58;;;;;;;12.13;9.20;;;7.80;99.90;;;;;;4767552;30;20054;-68
2023/04/15 06:51:27;;;;;;;12.25;9.38;;;7.90;99.90;;;;;;4763162;30;20054;-70
2023/04/15 06:53:56;;;;;;;16.75;10.48;;;8.10;99.90;;;;;;4760319;30;20070;-69
2023/04/15 06:56:25;;;;;;;13.07;9.23;;;8.20;99.90;;;;;;4766320;30;20525;-70
2023/04/15 06:58:54;;;;;;;14.85;9.32;;;8.20;99.90;;;;;;4768501;30;20059;-68
2023/04/15 07:01:23;;;;;;;14.55;9.52;;;8.30;99.90;;;;;;4763509;30;20052;-68
2023/04/15 07:03:51;;;;;;;13.20;9.15;;;8.50;99.90;;;;;;4763956;30;20426;-69
2023/04/15 07:06:20;;;;;;;12.68;8.82;;;8.60;99.90;;;;;;4766830;30;20120;-69
2023/04/15 07:08:49;;;;;;;11.18;8.55;;;8.70;99.90;;;;;;4766877;30;20044;-68
2023/04/15 07:11:18;;;;;;;13.15;8.57;;;8.60;99.90;;;;;;4756372;30;20048;-68
2023/04/15 07:13:46;;;;;;;13.05;8.82;;;8.70;99.90;;;;;;4760104;30;20048;-68
2023/04/15 07:16:15;;;;;;;11.95;9.30;;;8.70;99.90;;;;;;4760250;30;20054;-68
2023/04/15 07:18:44;;;;;;;11.50;8.52;;;8.70;99.90;;;;;;4766309;30;20426;-68
2023/04/15 07:21:12;;;;;;;12.25;8.65;;;8.80;99.90;;;;;;4778469;30;20070;-75
2023/04/15 07:23:41;;;;;;;13.32;9.40;;;8.90;99.90;;;;;;4764327;30;20537;-67
2023/04/15 07:26:11;;;;;;;12.70;9.35;;;9.00;99.90;;;;;;4764375;30;20057;-67
2023/04/15 07:28:40;;;;;;;11.68;8.35;;;9.10;99.90;;;;;;4765369;30;20426;-68
2023/04/15 07:31:09;;;;;;;12.35;8.95;;;9.30;99.90;;;;;;4766046;30;20058;-70
2023/04/15 07:33:37;;;;;;;14.98;8.93;;;9.40;99.90;;;;;;4765628;30;20058;-69
2023/04/15 07:36:05;;;;;;;10.65;8.38;;;9.60;99.90;;;;;;4766968;30;20492;-68
2023/04/15 07:38:34;;;;;;;11.63;8.88;;;9.70;99.90;;;;;;4766422;30;20055;-67
2023/04/15 07:41:03;;;;;;;11.38;8.68;;;9.80;99.90;;;;;;4765680;30;20054;-68
2023/04/15 07:43:32;;;;;;;10.35;7.35;;;9.90;99.90;;;;;;4766785;30;20054;-67
2023/04/15 07:46:00;;;;;;;10.38;7.53;;;9.80;99.90;;;;;;4766048;30;20050;-68
2023/04/15 07:48:29;;;;;;;9.73;7.28;;;9.70;99.90;;;;;;4762365;30;20495;-69
2023/04/15 07:50:58;;;;;;;10.27;7.57;;;9.70;99.90;;;;;;4764531;30;20076;-70
2023/04/15 07:53:26;;;;;;;11.88;7.60;;;9.60;99.90;;;;;;4760106;30;20051;-69
2023/04/15 07:55:55;;;;;;;10.63;7.72;;;9.70;99.90;;;;;;4759197;30;20044;-69
2023/04/15 07:58:23;;;;;;;9.80;7.25;;;9.60;99.90;;;;;;4761015;30;20052;-70
2023/04/15 08:00:54;;;;;;;11.27;7.40;;;9.90;99.90;;;;;;4765556;30;20054;-70
2023/04/15 08:03:22;;;;;;;9.93;6.63;;;10.00;99.90;;;;;;4755003;30;20040;-70
2023/04/15 08:05:51;;;;;;;8.88;6.60;;;10.10;99.90;;;;;;4748244;30;20496;-69
2023/04/15 08:08:20;;;;;;;8.48;5.75;;;10.30;99.90;;;;;;4751494;30;20127;-68
2023/04/15 08:10:49;;;;;;;8.77;5.40;;;10.00;99.90;;;;;;4767571;30;20059;-69
2023/04/15 08:13:20;;;;;;;9.13;6.22;;;9.80;99.90;;;;;;4758042;30;20055;-69
2023/04/15 08:16:22;;;;;;;7.18;5.57;;;9.50;99.90;;;;;;4758256;30;20528;-69
2023/04/15 08:18:52;;;;;;;8.73;6.03;;;9.40;99.90;;;;;;4765656;30;20564;-67
2023/04/15 08:21:21;;;;;;;8.95;6.05;;;9.40;99.90;;;;;;4759656;30;20666;-70
2023/04/15 08:23:52;;;;;;;7.45;5.88;;;9.30;99.90;;;;;;4766023;30;20059;-69
2023/04/15 08:26:21;;;;;;;7.75;5.75;;;9.00;99.90;;;;;;4776728;30;20736;-69
2023/04/15 08:28:50;;;;;;;8.57;5.78;;;9.00;99.90;;;;;;4769744;30;20400;-69
2023/04/15 08:31:18;;;;;;;9.75;5.43;;;8.90;99.90;;;;;;4763695;30;20040;-69
2023/04/15 08:33:47;;;;;;;7.30;4.45;;;8.90;99.90;;;;;;4757316;30;20052;-68
2023/04/15 08:36:16;;;;;;;8.55;4.30;;;8.70;99.90;;;;;;4765082;30;20055;-68
2023/04/15 08:38:45;;;;;;;5.68;3.63;;;8.60;99.90;;;;;;4764515;30;20082;-70
2023/04/15 08:41:24;;;;;;;5.70;3.42;;;8.50;99.90;;;;;;4761952;30;20518;-70
2023/04/15 08:43:57;;;;;;;4.50;2.97;;;8.40;99.90;;;;;;4764899;30;20058;-70
2023/04/15 08:46:26;;;;;;;4.70;2.47;;;8.30;99.90;;;;;;4748174;30;20048;-69
2023/04/15 08:48:57;;;;;;;3.97;2.58;;;8.10;99.90;;;;;;4754953;30;20052;-68
2023/04/15 08:51:26;;;;;;;3.92;2.63;;;8.10;99.90;;;;;;4765992;30;20142;-70
2023/04/15 08:53:55;;;;;;;5.05;2.58;;;8.10;99.90;;;;;;4756847;30;20044;-70
2023/04/15 08:56:25;;;;;;;4.10;2.60;;;8.20;99.90;;;;;;4752896;30;20070;-69
2023/04/15 08:58:54;;;;;;;4.72;2.92;;;8.10;99.90;;;;;;4766009;30;20048;-69
2023/04/15 09:01:23;;;;;;;4.00;2.78;;;8.00;99.90;;;;;;4761117;30;20050;-69
2023/04/15 09:03:55;;;;;;;4.90;2.70;;;8.10;99.90;;;;;;4761105;30;20091;-68
2023/04/15 09:06:25;;;;;;;6.47;3.30;;;8.00;99.90;;;;;;4766367;30;20044;-68
2023/04/15 09:08:53;;;;;;;4.72;3.10;;;8.00;99.90;;;;;;4747314;30;20044;-67
2023/04/15 09:11:22;;;;;;;5.78;3.40;;;8.10;99.90;;;;;;4764387;30;20052;-68
2023/04/15 09:13:51;;;;;;;5.13;3.22;;;8.10;99.90;;;;;;4759948;30;20082;-70
2023/04/15 09:16:19;;;;;;;5.95;3.58;;;8.20;99.90;;;;;;4755950;30;20043;-70
2023/04/15 09:18:48;;;;;;;7.30;3.72;;;8.20;99.90;;;;;;4763720;30;20360;-69
2023/04/15 09:21:17;;;;;;;8.60;3.70;;;8.40;99.90;;;;;;4752357;30;20056;-68
2023/04/15 09:23:57;;;;;;;7.40;4.88;;;8.50;99.90;;;;;;4756041;30;20056;-68
2023/04/15 09:26:39;;;;;;;8.18;4.85;;;8.70;99.90;;;;;;4754585;30;20052;-71
2023/04/15 09:29:09;;;;;;;7.32;4.93;;;8.70;99.90;;;;;;4763377;30;20468;-69
2023/04/15 09:31:39;;;;;;;6.78;4.93;;;9.00;99.90;;;;;;4759031;30;20058;-70
2023/04/15 09:34:07;;;;;;;6.50;4.65;;;8.90;99.90;;;;;;4762953;30;20062;-71
2023/04/15 09:36:45;;;;;;;6.03;4.30;;;8.70;99.90;;;;;;4765862;30;20353;-69
2023/04/15 09:39:15;;;;;;;6.68;4.50;;;8.80;99.90;;;;;;4766423;30;20047;-69
2023/04/15 09:41:44;;;;;;;6.28;3.83;;;8.60;99.90;;;;;;4750272;30;20063;-69
2023/04/15 09:44:26;;;;;;;8.05;4.20;;;8.60;99.90;;;;;;4761754;30;20404;-69
2023/04/15 09:46:54;;;;;;;5.82;3.40;;;8.50;99.90;;;;;;4764530;30;20036;-69
2023/04/15 09:49:23;;;;;;;4.63;3.22;;;8.30;99.90;;;;;;4768729;30;20052;-68
2023/04/15 09:52:00;;;;;;;4.38;3.00;;;8.10;99.90;;;;;;4761588;30;20056;-70
2023/04/15 09:54:37;;;;;;;4.38;3.08;;;8.20;99.90;;;;;;4752405;30;20395;-69
2023/04/15 09:57:08;;;;;;;4.47;2.88;;;8.30;99.90;;;;;;4775173;30;20082;-68
2023/04/15 09:59:38;;;;;;;4.53;2.88;;;8.30;99.90;;;;;;4749231;30;20071;-70
2023/04/15 10:02:07;;;;;;;5.18;2.88;;;8.30;99.90;;;;;;4758931;30;20056;-68
2023/04/15 10:04:40;;;;;;;4.85;3.10;;;8.40;99.90;;;;;;4751306;30;20040;-70
2023/04/15 10:07:11;;;;;;;4.13;2.90;;;8.40;99.90;;;;;;4747493;30;20537;-70
2023/04/15 10:09:40;;;;;;;4.53;3.10;;;8.40;99.90;;;;;;4758278;30;20057;-70
2023/04/15 10:12:09;;;;;;;5.00;3.38;;;8.20;99.90;;;;;;4759941;30;20051;-68
2023/04/15 10:14:41;;;;;;;5.57;3.20;;;8.10;99.90;;;;;;4776125;30;20074;-71
2023/04/15 10:17:13;;;;;;;4.00;2.70;;;8.10;99.90;;;;;;4756371;30;20060;-70
2023/04/15 10:19:42;;;;;;;5.32;3.30;;;8.20;99.90;;;;;;4763706;30;20056;-69
2023/04/15 10:22:12;;;;;;;4.18;2.90;;;8.30;99.90;;;;;;4755688;30;20062;-68
2023/04/15 10:24:42;;;;;;;4.40;2.90;;;8.10;99.90;;;;;;4760470;30;20132;-69
2023/04/15 10:27:11;;;;;;;4.28;2.80;;;8.00;99.90;;;;;;4749217;30;20376;-70
2023/04/15 10:29:40;;;;;;;5.13;3.13;;;8.00;99.90;;;;;;4769580;30;20054;-68
2023/04/15 10:32:10;;;;;;;6.93;3.28;;;8.10;99.90;;;;;;4762952;30;20667;-71
2023/04/15 10:34:39;;;;;;;5.93;3.15;;;8.40;99.90;;;;;;4768253;30;20042;-68
2023/04/15 10:37:10;;;;;;;4.30;2.80;;;8.40;99.90;;;;;;4759011;30;20044;-71
2023/04/15 10:39:41;;;;;;;6.47;3.33;;;8.30;99.90;;;;;;4766525;30;20048;-72
2023/04/15 10:42:15;;;;;;;4.57;3.25;;;8.20;99.90;;;;;;4758666;30;20055;-69
2023/04/15 10:44:48;;;;;;;4.70;3.35;;;8.30;99.90;;;;;;4752668;30;20451;-71
2023/04/15 10:47:20;;;;;;;4.88;3.40;;;8.20;99.90;;;;;;4782029;30;20048;-69
2023/04/15 10:49:51;;;;;;;7.28;4.30;;;8.20;99.90;;;;;;4766678;30;20048;-69
2023/04/15 10:52:26;;;;;;;5.40;3.37;;;8.30;99.90;;;;;;4756554;30;20044;-72
2023/04/15 10:55:03;;;;;;;17.10;9.38;;;8.70;99.90;;;;;;4764367;30;20044;-70
2023/04/15 10:57:38;;;;;;;5.13;3.72;;;9.00;99.90;;;;;;4765637;30;20530;-70
2023/04/15 11:00:17;;;;;;;5.22;3.38;;;9.10;99.90;;;;;;4768677;30;20511;-71
2023/04/15 11:02:51;;;;;;;5.60;3.58;;;9.50;99.90;;;;;;4760716;30;20131;-71
2023/04/15 11:05:22;;;;;;;4.85;3.20;;;10.00;99.90;;;;;;4764699;30;20062;-72
2023/04/15 11:07:54;;;;;;;5.63;3.83;;;10.40;99.90;;;;;;4768624;30;20695;-71
2023/04/15 11:10:28;;;;;;;5.93;4.05;;;10.60;99.90;;;;;;4766869;30;20495;-70
2023/04/15 11:13:02;;;;;;;5.50;3.53;;;10.50;99.90;;;;;;4766412;30;20050;-69
2023/04/15 11:15:38;;;;;;;5.50;3.70;;;10.30;99.90;;;;;;4765731;30;20058;-70
2023/04/15 11:18:26;;;;;;;5.57;3.78;;;10.20;99.90;;;;;;4760695;30;20071;-69
2023/04/15 11:20:58;;;;;;;4.93;3.78;;;9.90;99.90;;;;;;4774456;30;20055;-69
2023/04/15 11:23:46;;;;;;;8.23;3.95;;;9.60;99.90;;;;;;4755832;30;20085;-71
2023/04/15 11:26:15;;;;;;;5.90;3.90;;;9.40;99.90;;;;;;4767034;30;20493;-68
2023/04/15 11:28:45;;;;;;;5.75;3.88;;;9.40;99.90;;;;;;4765325;30;20525;-68
2023/04/15 11:31:16;;;;;;;5.85;3.50;;;9.20;99.90;;;;;;4759413;30;20055;-69
2023/04/15 11:33:52;;;;;;;10.32;4.15;;;8.90;99.90;;;;;;4760315;30;20054;-70
2023/04/15 11:36:23;;;;;;;6.00;3.83;;;8.80;99.90;;;;;;4765617;30;20503;-71
2023/04/15 11:38:51;;;;;;;5.93;3.67;;;8.70;99.90;;;;;;4761510;30;20055;-69
2023/04/15 11:41:21;;;;;;;5.63;3.58;;;8.50;99.90;;;;;;4760302;30;20058;-70
2023/04/15 11:43:50;;;;;;;5.90;3.60;;;8.40;99.90;;;;;;4767671;30;20515;-70
2023/04/15 11:46:20;;;;;;;5.57;3.53;;;8.40;99.90;;;;;;4766297;30;20414;-70
2023/04/15 11:48:49;;;;;;;6.50;3.42;;;8.50;99.90;;;;;;4781777;30;20070;-70
2023/04/15 11:51:20;;;;;;;6.35;3.80;;;8.70;99.90;;;;;;4766218;30;20043;-67
2023/04/15 11:53:49;;;;;;;4.95;3.28;;;8.60;99.90;;;;;;4758691;30;20079;-69
2023/04/15 11:56:22;;;;;;;6.22;4.18;;;8.60;99.90;;;;;;4748553;30;20054;-70
2023/04/15 11:58:57;;;;;;;10.90;5.22;;;8.60;99.90;;;;;;4745240;30;20134;-70
2023/04/15 12:01:38;;;;;;;6.75;3.72;;;8.70;99.90;;;;;;4771290;30;20121;-69
2023/04/15 12:04:12;;;;;;;5.28;3.28;;;8.70;99.90;;;;;;4762678;30;20058;-69
2023/04/15 12:06:40;;;;;;;4.47;3.00;;;8.60;99.90;;;;;;4761269;30;20449;-71
2023/04/15 12:09:10;;;;;;;5.72;3.50;;;8.80;99.90;;;;;;4753748;30;20182;-72
2023/04/15 12:11:50;;;;;;;4.10;2.90;;;8.90;99.90;;;;;;4763326;30;20495;-69
2023/04/15 12:14:24;;;;;;;4.25;2.80;;;8.90;99.90;;;;;;4745586;30;20301;-70
2023/04/15 12:16:54;;;;;;;4.30;2.67;;;8.90;99.90;;;;;;4736457;30;20109;-70
2023/04/15 12:19:27;;;;;;;3.97;2.60;;;8.70;99.90;;;;;;4765005;30;20518;-69
2023/04/15 12:22:11;;;;;;;4.70;2.72;;;8.60;99.90;;;;;;4767136;30;20074;-69
2023/04/15 12:24:39;;;;;;;5.03;2.88;;;8.50;99.90;;;;;;4768585;30;20224;-68
2023/04/15 12:27:11;;;;;;;3.92;2.75;;;8.60;99.90;;;;;;4757790;30;20559;-70
2023/04/15 12:29:40;;;;;;;4.65;2.97;;;8.60;99.90;;;;;;4765979;30;20131;-69
2023/04/15 12:32:13;;;;;;;3.63;2.50;;;8.60;99.90;;;;;;4762578;30;20063;-69
2023/04/15 12:34:51;;;;;;;4.10;2.70;;;8.70;99.90;;;;;;4756371;30;20044;-69
2023/04/15 12:37:18;;;;;;;3.50;2.50;;;8.90;99.90;;;;;;4758420;30;20127;-68
2023/04/15 12:39:48;;;;;;;3.55;2.53;;;8.90;99.90;;;;;;4759395;30;20048;-71
2023/04/15 12:42:16;;;;;;;4.25;2.70;;;8.90;99.90;;;;;;4757920;30;20503;-69
2023/04/15 12:44:43;;;;;;;3.78;2.45;;;8.80;99.90;;;;;;4758721;30;20040;-69
2023/04/15 12:47:12;;;;;;;5.60;3.60;;;8.90;99.90;;;;;;4755039;30;20062;-70
2023/04/15 12:49:39;;;;;;;5.18;3.00;;;8.90;99.90;;;;;;4761987;30;20048;-71
2023/04/15 12:52:07;;;;;;;4.40;3.05;;;9.00;99.90;;;;;;4756544;30;20064;-68
2023/04/15 12:54:35;;;;;;;3.10;2.20;;;9.00;99.90;;;;;;4763343;30;20043;-71
2023/04/15 12:57:03;;;;;;;3.67;2.50;;;9.20;99.90;;;;;;4764336;30;20069;-70
2023/04/15 12:59:34;;;;;;;5.22;2.80;;;9.30;99.90;;;;;;4761806;30;20048;-70
2023/04/15 13:02:01;;;;;;;3.80;2.58;;;9.20;99.90;;;;;;4765107;29;20072;-71
2023/04/15 13:04:29;;;;;;;3.65;2.75;;;9.30;99.90;;;;;;4750481;30;20143;-71